Time;durP1;ratioP1;P1;durP2;ratioP2;P2;SDS_P1;SDS_P2;PMS_P1;PMS_P2;Temp;Humidity;BMP_temperature;BMP_pressure;BME280_temperature;BME280_humidity;BME280_pressure;Samples;Min_cycle;Max_cycle;Signal;HPM_P1;HPM_P2
2021/11/25 00:00:00;;;;;;;20.87;18.87;;;5.90;43.00;;;;;;10426385;28;20727;-75
2021/11/25 00:05:06;;;;;;;19.47;17.63;;;6.00;42.90;;;;;;10424174;28;20217;-73
2021/11/25 00:10:11;;;;;;;21.20;19.20;;;6.00;42.80;;;;;;10423923;28;20616;-70
2021/11/25 00:15:14;;;;;;;20.17;18.27;;;5.90;42.80;;;;;;10419571;28;20232;-73
2021/11/25 00:20:20;;;;;;;19.60;17.70;;;5.90;42.90;;;;;;10424592;28;20227;-71
2021/11/25 00:25:24;;;;;;;18.00;16.40;;;6.00;43.00;;;;;;10419745;28;20232;-73
2021/11/25 00:30:27;;;;;;;18.53;16.83;;;6.00;43.00;;;;;;10422946;28;20251;-71
2021/11/25 00:35:31;;;;;;;18.73;16.93;;;6.00;42.90;;;;;;10417630;28;20735;-73
2021/11/25 00:40:35;;;;;;;18.70;16.97;;;6.00;42.80;;;;;;10419876;28;20785;-73
2021/11/25 00:45:38;;;;;;;18.10;16.40;;;6.10;42.80;;;;;;10420267;28;20229;-70
2021/11/25 00:50:43;;;;;;;16.80;15.20;;;6.00;43.30;;;;;;10419870;28;20625;-70
2021/11/25 00:55:46;;;;;;;17.63;15.93;;;6.00;42.70;;;;;;10421463;28;20244;-73
2021/11/25 01:00:50;;;;;;;18.07;16.40;;;5.90;42.70;;;;;;10422625;28;20225;-70
2021/11/25 01:05:55;;;;;;;18.40;16.67;;;5.90;42.80;;;;;;10423873;28;20225;-73
2021/11/25 01:10:59;;;;;;;17.17;15.53;;;5.90;42.90;;;;;;10421828;28;20228;-70
2021/11/25 01:16:02;;;;;;;17.80;16.20;;;5.80;42.90;;;;;;10421284;28;20325;-74
2021/11/25 01:21:07;;;;;;;19.70;17.83;;;5.80;42.90;;;;;;10420051;28;20240;-70
2021/11/25 01:26:11;;;;;;;18.17;16.47;;;5.80;42.90;;;;;;10416441;28;20244;-70
2021/11/25 01:31:14;;;;;;;24.20;21.70;;;5.80;43.00;;;;;;10416279;28;20229;-71
2021/11/25 01:36:19;;;;;;;26.97;24.17;;;5.80;42.90;;;;;;10421988;28;20650;-70
2021/11/25 01:41:22;;;;;;;26.90;24.17;;;5.80;42.90;;;;;;10419461;28;20260;-70
2021/11/25 01:46:26;;;;;;;27.10;24.30;;;5.80;42.90;;;;;;10418724;28;21055;-70
2021/11/25 01:51:30;;;;;;;27.33;24.53;;;5.90;42.90;;;;;;10417199;28;20248;-70
2021/11/25 01:56:33;;;;;;;25.87;23.20;;;5.80;43.00;;;;;;10416382;28;20745;-73
2021/11/25 02:01:37;;;;;;;29.27;26.30;;;5.80;43.00;;;;;;10416563;28;20612;-75
2021/11/25 02:06:42;;;;;;;30.37;27.10;;;5.90;43.10;;;;;;10424057;28;20240;-70
2021/11/25 02:11:45;;;;;;;30.77;27.63;;;5.90;43.10;;;;;;10420186;28;20240;-74
2021/11/25 02:16:50;;;;;;;28.70;25.43;;;5.90;43.10;;;;;;10421774;28;20225;-70
2021/11/25 02:21:54;;;;;;;30.60;27.40;;;5.90;42.80;;;;;;10422266;28;20229;-73
2021/11/25 02:26:57;;;;;;;29.73;26.63;;;5.80;42.80;;;;;;10421375;28;20283;-73
2021/11/25 02:32:01;;;;;;;31.07;27.80;;;5.80;42.80;;;;;;10418634;28;20229;-73
2021/11/25 02:37:05;;;;;;;27.00;24.23;;;5.70;42.80;;;;;;10429913;28;20229;-71
2021/11/25 02:42:09;;;;;;;29.63;26.50;;;5.60;42.90;;;;;;10430206;28;20232;-73
2021/11/25 02:47:12;;;;;;;29.57;26.47;;;5.60;43.10;;;;;;10427960;28;20237;-73
2021/11/25 02:52:17;;;;;;;27.37;24.47;;;5.60;42.90;;;;;;10422189;28;20476;-70
2021/11/25 02:57:20;;;;;;;26.23;23.47;;;5.60;43.10;;;;;;10428784;28;20234;-70
2021/11/25 03:02:23;;;;;;;26.77;23.90;;;5.50;43.00;;;;;;10426655;28;20603;-73
2021/11/25 03:07:28;;;;;;;28.73;25.73;;;5.50;43.10;;;;;;10423802;28;20237;-71
2021/11/25 03:12:31;;;;;;;29.37;26.10;;;5.50;43.10;;;;;;10423108;28;20229;-70
2021/11/25 03:17:37;;;;;;;27.63;24.00;;;5.50;43.10;;;;;;10424622;28;20712;-73
2021/11/25 03:22:42;;;;;;;27.37;24.40;;;5.50;43.10;;;;;;10430218;28;20693;-70
2021/11/25 03:27:45;;;;;;;23.97;21.47;;;5.50;43.10;;;;;;10424497;28;20241;-70
2021/11/25 03:32:48;;;;;;;27.77;24.73;;;5.50;43.10;;;;;;10424850;28;20237;-70
2021/11/25 03:37:52;;;;;;;24.07;21.50;;;5.50;43.80;;;;;;10423506;28;20233;-73
2021/11/25 03:42:56;;;;;;;25.10;22.37;;;5.50;43.10;;;;;;10429163;28;20237;-73
2021/11/25 03:47:59;;;;;;;24.17;21.63;;;5.50;43.20;;;;;;10429201;28;20232;-75
2021/11/25 03:53:04;;;;;;;21.97;19.60;;;5.40;43.10;;;;;;10425062;28;20225;-74
2021/11/25 03:58:07;;;;;;;20.23;18.10;;;5.40;43.10;;;;;;10428043;28;20648;-70
2021/11/25 04:03:11;;;;;;;20.00;17.90;;;5.30;43.00;;;;;;10426124;28;20232;-75
2021/11/25 04:08:16;;;;;;;21.07;18.87;;;5.30;43.00;;;;;;10423626;28;20259;-70
2021/11/25 04:13:19;;;;;;;22.83;20.53;;;5.30;43.00;;;;;;10426644;28;20729;-70
2021/11/25 04:18:22;;;;;;;23.33;19.77;;;5.30;43.00;;;;;;10428182;28;20233;-75
2021/11/25 04:23:27;;;;;;;20.63;18.43;;;5.20;42.90;;;;;;10423793;28;20237;-70
2021/11/25 04:28:30;;;;;;;20.63;18.53;;;5.20;43.10;;;;;;10422954;28;20603;-75
2021/11/25 04:38:57;;;;;;;20.23;18.13;;;5.20;43.00;;;;;;10420619;28;20604;-73
2021/11/25 04:44:00;;;;;;;20.47;18.30;;;5.20;43.70;;;;;;10423553;28;20280;-71
2021/11/25 04:49:04;;;;;;;21.87;19.37;;;5.20;42.90;;;;;;10428685;28;20293;-71
2021/11/25 04:54:09;;;;;;;21.60;17.97;;;5.20;42.90;;;;;;10419578;28;20238;-74
2021/11/25 04:59:12;;;;;;;21.30;19.00;;;5.20;42.90;;;;;;10424840;28;20222;-73
2021/11/25 05:04:15;;;;;;;21.87;18.93;;;5.20;42.90;;;;;;10421859;28;20481;-70
2021/11/25 05:09:20;;;;;;;22.70;20.33;;;5.20;42.90;;;;;;10423029;28;20272;-70
2021/11/25 05:14:23;;;;;;;24.93;20.10;;;5.30;43.00;;;;;;10420681;28;20268;-71
2021/11/25 05:19:27;;;;;;;19.00;16.97;;;5.20;42.90;;;;;;10426019;28;20667;-75
2021/11/25 05:24:31;;;;;;;20.03;17.90;;;5.20;42.90;;;;;;10418688;28;20229;-70
2021/11/25 05:29:35;;;;;;;21.67;19.33;;;5.20;43.00;;;;;;10417747;28;20835;-73
2021/11/25 05:34:38;;;;;;;20.97;18.70;;;5.20;42.90;;;;;;10425430;28;20658;-75
2021/11/25 05:39:43;;;;;;;20.97;18.73;;;5.20;42.90;;;;;;10419913;28;20227;-75
2021/11/25 05:44:46;;;;;;;22.10;19.53;;;5.20;42.90;;;;;;10411139;28;20235;-74
2021/11/25 05:49:49;;;;;;;20.67;18.47;;;5.10;42.90;;;;;;10417065;28;20239;-70
2021/11/25 05:54:55;;;;;;;24.27;21.67;;;5.10;42.90;;;;;;10414445;28;20257;-71
2021/11/25 05:59:58;;;;;;;23.53;20.23;;;5.10;43.80;;;;;;10419516;28;20228;-75
2021/11/25 06:05:01;;;;;;;42.73;30.23;;;5.10;43.00;;;;;;10417894;28;20612;-73
2021/11/25 06:10:07;;;;;;;29.47;22.73;;;5.00;42.80;;;;;;10417265;28;20232;-73
2021/11/25 06:15:11;;;;;;;31.47;23.17;;;5.00;43.20;;;;;;10413400;28;20755;-73
2021/11/25 06:20:16;;;;;;;29.97;24.93;;;4.90;43.30;;;;;;10420037;28;20233;-73
2021/11/25 06:25:23;;;;;;;24.90;21.73;;;5.00;43.50;;;;;;10413483;28;20240;-73
2021/11/25 06:30:27;;;;;;;22.93;20.40;;;5.00;43.30;;;;;;10419151;28;20241;-73
2021/11/25 06:35:30;;;;;;;22.43;20.00;;;5.00;43.10;;;;;;10417890;28;20579;-73
2021/11/25 06:40:36;;;;;;;22.70;19.10;;;5.00;43.10;;;;;;10418983;28;20388;-74
2021/11/25 06:45:41;;;;;;;23.00;19.57;;;5.00;43.20;;;;;;10414552;28;20236;-74
2021/11/25 06:50:44;;;;;;;25.87;21.70;;;5.00;43.10;;;;;;10415695;28;20235;-73
2021/11/25 06:55:49;;;;;;;24.33;20.13;;;4.90;43.00;;;;;;10416076;28;20733;-74
2021/11/25 07:00:52;;;;;;;23.53;20.17;;;4.90;43.10;;;;;;10417866;28;20621;-73
2021/11/25 07:05:56;;;;;;;24.60;20.80;;;4.80;43.10;;;;;;10413476;28;20588;-73
2021/11/25 07:11:01;;;;;;;23.20;18.47;;;4.80;43.80;;;;;;10411664;28;20229;-73
2021/11/25 07:16:04;;;;;;;21.47;17.90;;;4.80;43.10;;;;;;10416953;28;20743;-73
2021/11/25 07:21:12;;;;;;;21.43;17.57;;;4.70;43.10;;;;;;10421373;28;21012;-74
2021/11/25 07:26:17;;;;;;;21.33;17.57;;;4.60;43.10;;;;;;10425619;28;20272;-74
2021/11/25 07:31:21;;;;;;;17.30;15.43;;;4.60;43.50;;;;;;10431697;28;20237;-74
2021/11/25 07:36:25;;;;;;;19.20;17.10;;;4.60;43.60;;;;;;10430702;28;20324;-74
2021/11/25 07:41:31;;;;;;;21.23;17.17;;;4.60;43.60;;;;;;10430823;28;20247;-74
2021/11/25 07:46:35;;;;;;;19.97;16.33;;;4.70;43.50;;;;;;10432959;28;20231;-74
2021/11/25 07:51:38;;;;;;;19.10;16.27;;;4.60;43.30;;;;;;10430253;28;20226;-74
2021/11/25 07:56:43;;;;;;;18.27;15.20;;;4.60;43.60;;;;;;10428810;28;20736;-75
2021/11/25 08:01:46;;;;;;;18.57;15.97;;;4.70;43.80;;;;;;10430031;28;20234;-75
2021/11/25 08:06:49;;;;;;;18.17;15.53;;;4.60;43.40;;;;;;10432032;28;20240;-75
2021/11/25 08:11:54;;;;;;;17.50;15.53;;;4.70;43.40;;;;;;10430257;28;20706;-76
2021/11/25 08:16:59;;;;;;;19.77;16.57;;;4.60;43.60;;;;;;10434050;28;20241;-76
2021/11/25 08:22:02;;;;;;;20.40;16.73;;;4.80;43.60;;;;;;10429852;28;20693;-74
2021/11/25 08:27:09;;;;;;;19.70;16.23;;;4.60;43.50;;;;;;10433592;28;20236;-75
2021/11/25 08:32:12;;;;;;;19.93;16.70;;;4.70;43.70;;;;;;10435910;28;20236;-75
2021/11/25 08:37:16;;;;;;;19.00;15.67;;;4.70;43.60;;;;;;10429591;28;20240;-76
2021/11/25 08:42:25;;;;;;;18.73;15.70;;;4.80;43.70;;;;;;10429047;28;20592;-75
2021/11/25 08:47:32;;;;;;;21.90;16.43;;;4.90;43.80;;;;;;10430080;28;20311;-75
2021/11/25 08:52:35;;;;;;;20.00;16.67;;;5.00;43.70;;;;;;10429641;28;20578;-75
2021/11/25 08:57:40;;;;;;;18.83;16.37;;;5.00;43.60;;;;;;10432042;28;20232;-75
2021/11/25 09:02:43;;;;;;;21.20;17.00;;;5.10;43.50;;;;;;10421950;28;20236;-75
2021/11/25 09:07:47;;;;;;;20.10;16.70;;;5.10;43.30;;;;;;10438735;28;20229;-76
2021/11/25 09:12:51;;;;;;;19.53;16.17;;;5.10;43.30;;;;;;10429148;28;20584;-76
2021/11/25 09:18:00;;;;;;;20.57;16.60;;;5.10;43.40;;;;;;10425129;28;20225;-75
2021/11/25 09:23:04;;;;;;;18.57;16.03;;;5.10;43.30;;;;;;10426967;28;20260;-75
2021/11/25 09:28:11;;;;;;;18.93;15.87;;;5.10;43.30;;;;;;10422928;28;20339;-75
2021/11/25 09:33:14;;;;;;;22.57;19.87;;;5.10;43.30;;;;;;10419842;28;20234;-75
2021/11/25 09:38:18;;;;;;;20.63;17.33;;;5.10;43.40;;;;;;10432803;28;20702;-75
2021/11/25 09:43:24;;;;;;;20.70;16.93;;;5.10;43.20;;;;;;10431503;28;20237;-75
2021/11/25 09:48:28;;;;;;;22.47;17.90;;;5.10;43.10;;;;;;10429223;28;20240;-76
2021/11/25 09:53:32;;;;;;;20.23;16.93;;;5.10;43.10;;;;;;10434259;28;20267;-76
2021/11/25 09:58:38;;;;;;;18.90;15.67;;;5.10;43.00;;;;;;10416165;28;20226;-76
2021/11/25 10:03:48;;;;;;;18.40;15.97;;;5.10;43.40;;;;;;10419347;28;20249;-76
2021/11/25 10:08:52;;;;;;;20.40;16.53;;;5.10;43.40;;;;;;10414969;28;21224;-76
2021/11/25 10:14:02;;;;;;;20.13;15.17;;;5.10;43.30;;;;;;10419011;28;20233;-75
2021/11/25 10:19:13;;;;;;;21.20;16.40;;;5.20;43.40;;;;;;10415067;28;20220;-76
2021/11/25 10:24:17;;;;;;;20.23;16.60;;;5.20;43.40;;;;;;10420045;28;20225;-76
2021/11/25 10:29:22;;;;;;;19.47;16.03;;;5.20;43.10;;;;;;10419150;28;20232;-76
2021/11/25 10:34:38;;;;;;;18.27;15.13;;;5.20;43.10;;;;;;10411630;28;20236;-75
2021/11/25 10:40:09;;;;;;;23.30;19.80;;;5.20;43.00;;;;;;10413958;28;20944;-76
2021/11/25 11:53:42;;;;;;;24.83;19.00;;;1.30;52.70;;;;;;10459917;27;20578;-70
2021/11/25 11:58:54;;;;;;;24.47;17.70;;;3.10;52.10;;;;;;10457965;28;20220;-70
2021/11/25 12:04:00;;;;;;;22.60;16.57;;;3.70;49.50;;;;;;10464621;28;20745;-71
2021/11/25 12:09:26;;;;;;;21.33;16.43;;;4.00;47.70;;;;;;10416611;28;20224;-71
2021/11/25 12:14:30;;;;;;;20.17;15.03;;;4.10;47.70;;;;;;10421977;28;20225;-71
2021/11/25 12:19:37;;;;;;;18.93;15.03;;;4.30;47.00;;;;;;10450664;28;20224;-71
2021/11/25 12:24:48;;;;;;;19.97;15.47;;;4.40;46.70;;;;;;10456937;28;20286;-71
2021/11/25 12:30:04;;;;;;;20.83;15.37;;;4.50;46.50;;;;;;10458783;28;20220;-71
2021/11/25 12:35:44;;;;;;;21.27;16.13;;;4.60;46.00;;;;;;10455494;28;20227;-71
2021/11/25 12:40:57;;;;;;;21.03;15.83;;;4.60;46.10;;;;;;10453676;28;20598;-71
2021/11/25 12:46:06;;;;;;;28.30;19.37;;;4.70;45.90;;;;;;10440602;28;20320;-71
2021/11/25 12:51:12;;;;;;;21.97;18.33;;;4.70;45.60;;;;;;10452335;28;20232;-71
2021/11/25 12:56:21;;;;;;;20.77;15.97;;;4.70;45.60;;;;;;10468894;28;20759;-71
2021/11/25 13:01:30;;;;;;;21.33;16.37;;;4.80;45.50;;;;;;10466233;28;20230;-71
2021/11/25 13:06:34;;;;;;;20.03;15.60;;;4.90;45.40;;;;;;10504817;28;20223;-71
2021/11/25 13:11:40;;;;;;;19.43;15.33;;;4.80;45.00;;;;;;10504645;28;20566;-71
2021/11/25 13:16:46;;;;;;;21.20;16.00;;;4.90;44.80;;;;;;10515322;28;20311;-75
2021/11/25 13:21:52;;;;;;;20.63;15.33;;;4.90;44.80;;;;;;10515857;28;20222;-70
2021/11/25 13:27:00;;;;;;;22.10;15.83;;;4.90;44.80;;;;;;10509787;28;20253;-73
2021/11/25 13:32:07;;;;;;;22.83;16.23;;;4.80;44.90;;;;;;10512834;28;20222;-69
2021/11/25 13:37:12;;;;;;;21.50;16.37;;;4.80;44.90;;;;;;10510885;28;20214;-74
2021/11/25 13:42:18;;;;;;;23.20;16.13;;;4.80;44.90;;;;;;10505205;28;20269;-69
2021/11/25 13:47:24;;;;;;;21.80;16.37;;;4.70;44.90;;;;;;10510548;28;20235;-69
2021/11/25 13:52:30;;;;;;;22.70;16.30;;;4.70;45.10;;;;;;10504914;28;20228;-69
2021/11/25 13:57:37;;;;;;;24.30;16.80;;;4.80;45.40;;;;;;10498523;28;20220;-69
2021/11/25 14:02:42;;;;;;;21.40;16.17;;;4.80;45.40;;;;;;10483762;28;20232;-70
2021/11/25 14:07:46;;;;;;;24.87;16.20;;;4.90;45.30;;;;;;10496569;28;20270;-74
2021/11/25 14:12:53;;;;;;;25.57;18.90;;;5.00;45.20;;;;;;10499094;28;20239;-74
2021/11/25 14:17:57;;;;;;;24.87;17.43;;;5.00;45.20;;;;;;10501531;28;20223;-74
2021/11/25 14:23:14;;;;;;;24.40;18.37;;;5.00;45.00;;;;;;10511087;28;20232;-74
2021/11/25 14:33:46;;;;;;;27.50;17.40;;;5.00;45.70;;;;;;10505292;28;20231;-74
2021/11/25 14:38:50;;;;;;;27.87;19.00;;;5.00;44.90;;;;;;10507243;28;20223;-75
2021/11/25 14:44:03;;;;;;;29.40;19.33;;;5.00;44.60;;;;;;10505532;28;20603;-75
2021/11/25 14:49:08;;;;;;;21.53;16.37;;;4.90;45.00;;;;;;10509266;28;20689;-75
2021/11/25 14:54:14;;;;;;;24.50;17.37;;;4.90;45.00;;;;;;10506040;28;20243;-74
2021/11/25 14:59:21;;;;;;;30.27;19.00;;;4.80;45.10;;;;;;10508217;28;20316;-75
2021/11/25 15:04:24;;;;;;;35.63;21.50;;;4.90;45.10;;;;;;10513738;28;20685;-75
2021/11/25 15:09:28;;;;;;;32.23;21.37;;;4.90;44.80;;;;;;10514424;28;20575;-75
2021/11/25 15:14:37;;;;;;;33.97;21.50;;;4.90;44.80;;;;;;10506035;28;20227;-75
2021/11/25 15:19:40;;;;;;;29.63;20.63;;;4.90;44.70;;;;;;10500844;28;20231;-75
2021/11/25 15:24:44;;;;;;;32.40;21.33;;;4.90;44.60;;;;;;10509823;28;20326;-75
2021/11/25 15:29:48;;;;;;;29.63;19.97;;;4.90;44.60;;;;;;10507084;28;20691;-78
2021/11/25 15:34:54;;;;;;;29.57;20.83;;;4.90;45.60;;;;;;10499276;28;20534;-75
2021/11/25 15:39:59;;;;;;;32.17;21.17;;;4.90;45.30;;;;;;10503166;28;20269;-75
2021/11/25 15:45:04;;;;;;;30.93;20.17;;;5.00;45.10;;;;;;10507542;28;20227;-75
2021/11/25 15:50:09;;;;;;;29.73;19.73;;;5.00;45.00;;;;;;10504417;28;20220;-73
2021/11/25 15:55:12;;;;;;;30.00;20.83;;;5.10;45.00;;;;;;10504752;28;20326;-73
2021/11/25 16:00:17;;;;;;;31.03;23.83;;;5.10;44.80;;;;;;10504643;28;20224;-73
2021/11/25 16:05:21;;;;;;;29.60;19.63;;;5.10;44.90;;;;;;10495201;28;20230;-74
2021/11/25 16:10:24;;;;;;;28.07;19.60;;;5.10;44.70;;;;;;10509426;28;20223;-74
2021/11/25 16:15:29;;;;;;;28.40;20.30;;;5.10;44.70;;;;;;10505462;28;20224;-75
2021/11/25 16:20:33;;;;;;;29.63;19.77;;;5.10;44.50;;;;;;10505155;28;20224;-74
2021/11/25 16:25:37;;;;;;;24.47;18.77;;;5.10;44.60;;;;;;10503647;28;20222;-74
2021/11/25 16:30:45;;;;;;;26.30;19.03;;;5.20;44.70;;;;;;10513298;28;20230;-71
2021/11/25 16:35:49;;;;;;;22.07;17.30;;;5.20;44.90;;;;;;10512681;28;20658;-71
2021/11/25 16:40:53;;;;;;;25.37;19.60;;;5.20;44.70;;;;;;10512779;28;20220;-71
2021/11/25 16:45:58;;;;;;;27.83;21.20;;;5.20;44.50;;;;;;10513648;28;20227;-71
2021/11/25 16:51:07;;;;;;;31.37;23.20;;;5.20;44.40;;;;;;10511765;28;20220;-71
2021/11/25 16:56:12;;;;;;;27.43;21.30;;;5.20;44.40;;;;;;10511888;28;20224;-71
2021/11/25 17:01:17;;;;;;;26.40;20.50;;;5.20;44.30;;;;;;10500824;28;20605;-71
2021/11/25 17:06:20;;;;;;;26.17;20.53;;;5.20;44.20;;;;;;10503598;28;20235;-71
2021/11/25 17:11:24;;;;;;;23.37;18.40;;;5.10;44.20;;;;;;10508531;28;20232;-73
2021/11/25 17:16:28;;;;;;;26.10;19.80;;;5.10;44.30;;;;;;10509329;28;20310;-74
2021/11/25 17:21:32;;;;;;;28.27;20.20;;;5.10;44.30;;;;;;10506022;28;20227;-75
2021/11/25 17:26:35;;;;;;;25.97;19.90;;;5.10;44.20;;;;;;10502624;28;20332;-71
2021/11/25 17:31:40;;;;;;;26.13;19.83;;;5.10;44.30;;;;;;10497824;28;20716;-71
2021/11/25 17:36:43;;;;;;;23.77;18.17;;;5.10;44.40;;;;;;10499999;28;20243;-71
2021/11/25 17:41:47;;;;;;;24.33;18.50;;;5.20;44.50;;;;;;10496271;28;20236;-71
2021/11/25 17:46:51;;;;;;;27.73;20.93;;;5.20;44.50;;;;;;10499635;28;20220;-71
2021/11/25 17:51:55;;;;;;;30.00;22.77;;;5.20;44.50;;;;;;10500728;28;20228;-70
2021/11/25 17:56:58;;;;;;;28.67;22.27;;;5.20;44.60;;;;;;10498868;28;20231;-70
2021/11/25 18:02:02;;;;;;;25.63;19.37;;;5.20;44.50;;;;;;10505554;28;20458;-70
2021/11/25 18:07:06;;;;;;;26.20;19.47;;;5.30;44.50;;;;;;10499907;28;20215;-71
2021/11/25 18:12:10;;;;;;;22.93;18.83;;;5.30;44.40;;;;;;10502645;28;20223;-70
2021/11/25 18:17:15;;;;;;;26.83;19.33;;;5.30;44.30;;;;;;10499042;28;20795;-71
2021/11/25 18:22:19;;;;;;;29.63;21.27;;;5.30;44.20;;;;;;10500727;28;20224;-70
2021/11/25 18:27:23;;;;;;;26.37;20.43;;;5.30;44.30;;;;;;10494291;28;20224;-71
2021/11/25 18:32:27;;;;;;;27.63;20.33;;;5.40;44.40;;;;;;10510035;28;20240;-71
2021/11/25 18:37:32;;;;;;;25.80;20.10;;;5.40;44.40;;;;;;10499934;28;20705;-71
2021/11/25 18:42:36;;;;;;;30.57;21.97;;;5.30;44.40;;;;;;10500910;28;20337;-70
2021/11/25 18:47:41;;;;;;;26.20;20.10;;;5.40;44.30;;;;;;10497561;28;20713;-70
2021/11/25 18:52:45;;;;;;;25.87;19.60;;;5.40;44.30;;;;;;10495581;28;20246;-70
2021/11/25 18:57:48;;;;;;;26.30;19.87;;;5.40;44.30;;;;;;10502122;28;20712;-70
2021/11/25 19:02:53;;;;;;;26.90;18.33;;;5.30;44.20;;;;;;10495898;28;20230;-70
2021/11/25 19:07:56;;;;;;;32.33;20.77;;;5.30;45.00;;;;;;10501858;28;20228;-70
2021/11/25 19:12:59;;;;;;;31.33;19.97;;;5.20;44.10;;;;;;10501952;28;20219;-70
2021/11/25 19:18:04;;;;;;;29.63;19.57;;;5.10;44.10;;;;;;10502437;28;20220;-73
2021/11/25 19:23:07;;;;;;;30.40;19.07;;;5.00;44.30;;;;;;10501529;28;20234;-73
2021/11/25 19:28:11;;;;;;;34.60;19.23;;;4.90;44.30;;;;;;10503901;28;20693;-73
2021/11/25 19:33:17;;;;;;;28.57;18.73;;;4.90;44.60;;;;;;10508624;28;20239;-73
2021/11/25 19:38:21;;;;;;;30.07;19.77;;;4.90;44.70;;;;;;10504964;28;20228;-73
2021/11/25 19:43:26;;;;;;;26.57;17.00;;;4.80;44.70;;;;;;10504031;28;20718;-73
2021/11/25 19:48:30;;;;;;;28.07;18.83;;;4.70;44.80;;;;;;10507590;28;20212;-75
2021/11/25 19:53:33;;;;;;;29.27;17.57;;;4.60;45.10;;;;;;10502975;28;20336;-75
2021/11/25 19:58:37;;;;;;;26.30;16.67;;;4.60;45.10;;;;;;10505633;28;20220;-75
2021/11/25 20:03:42;;;;;;;28.27;17.83;;;4.60;45.10;;;;;;10503712;28;20228;-74
2021/11/25 20:08:45;;;;;;;26.13;17.43;;;4.50;45.30;;;;;;10514401;28;20238;-73
2021/11/25 20:13:49;;;;;;;26.93;16.97;;;4.50;45.20;;;;;;10512232;28;20629;-70
2021/11/25 20:18:53;;;;;;;26.47;16.37;;;4.50;45.20;;;;;;10523225;28;20242;-70
2021/11/25 20:23:56;;;;;;;25.40;16.33;;;4.50;45.20;;;;;;10520164;28;20230;-74
2021/11/25 20:29:00;;;;;;;27.10;16.43;;;4.50;45.40;;;;;;10509310;28;20232;-69
2021/11/25 20:34:06;;;;;;;27.67;17.83;;;4.60;45.40;;;;;;10515270;28;20219;-69
2021/11/25 20:39:10;;;;;;;29.57;18.33;;;4.60;45.50;;;;;;10516146;28;20269;-70
2021/11/25 20:44:17;;;;;;;25.60;17.20;;;4.60;45.10;;;;;;10513368;28;20770;-73
2021/11/25 20:49:24;;;;;;;26.03;16.53;;;4.60;45.90;;;;;;10517698;28;20223;-70
2021/11/25 20:54:29;;;;;;;28.93;18.37;;;4.50;45.30;;;;;;10521022;28;20232;-69
2021/11/25 20:59:32;;;;;;;35.00;18.93;;;4.50;45.20;;;;;;10511720;28;20263;-68
2021/11/25 21:04:37;;;;;;;30.73;19.67;;;4.50;45.30;;;;;;10513420;28;20581;-74
2021/11/25 21:09:40;;;;;;;28.67;17.73;;;4.40;45.50;;;;;;10508716;28;20242;-71
2021/11/25 21:14:44;;;;;;;30.13;18.53;;;4.40;45.50;;;;;;10509974;28;20301;-74
2021/11/25 21:19:48;;;;;;;26.23;16.93;;;4.40;45.60;;;;;;10507907;28;20617;-71
2021/11/25 21:24:51;;;;;;;23.77;15.33;;;4.40;45.60;;;;;;10508729;28;20234;-74
2021/11/25 21:29:55;;;;;;;26.73;16.30;;;4.40;45.40;;;;;;10512522;28;20232;-74
2021/11/25 21:35:00;;;;;;;23.60;15.53;;;4.50;45.60;;;;;;10508928;28;20297;-74
2021/11/25 21:40:05;;;;;;;25.20;15.77;;;4.50;45.60;;;;;;10485532;28;20216;-74
2021/11/25 21:45:10;;;;;;;24.37;15.57;;;4.50;45.60;;;;;;10507309;28;20617;-70
2021/11/25 21:50:19;;;;;;;24.90;16.40;;;4.50;45.60;;;;;;10514141;28;20223;-71
2021/11/25 21:55:24;;;;;;;26.93;16.80;;;4.50;45.60;;;;;;10513664;28;20685;-71
2021/11/25 22:00:29;;;;;;;24.73;15.93;;;4.60;45.40;;;;;;10513900;28;20717;-74
2021/11/25 22:05:35;;;;;;;26.07;17.47;;;4.60;45.40;;;;;;10512958;28;20235;-74
2021/11/25 22:10:38;;;;;;;23.53;15.67;;;4.60;45.40;;;;;;10512431;28;20234;-72
2021/11/25 22:15:42;;;;;;;24.73;16.70;;;4.60;45.40;;;;;;10509647;28;20792;-71
2021/11/25 22:20:49;;;;;;;25.87;16.63;;;4.70;45.70;;;;;;10510365;28;20215;-71
2021/11/25 22:25:52;;;;;;;23.63;15.33;;;4.70;45.30;;;;;;10510762;28;20941;-71
2021/11/25 22:30:55;;;;;;;23.63;16.50;;;4.70;45.30;;;;;;10511338;28;20221;-71
2021/11/25 22:36:00;;;;;;;25.87;16.50;;;4.70;45.30;;;;;;10501608;28;20413;-74
2021/11/25 22:41:03;;;;;;;25.60;17.33;;;4.80;45.50;;;;;;10502333;28;20249;-74
2021/11/25 22:46:06;;;;;;;23.30;15.77;;;4.80;46.10;;;;;;10507819;28;20308;-74
2021/11/25 22:51:11;;;;;;;28.77;17.47;;;4.80;45.40;;;;;;10506764;28;20764;-71
2021/11/25 22:56:14;;;;;;;26.60;17.07;;;4.80;45.50;;;;;;10504077;28;20628;-71
2021/11/25 23:01:18;;;;;;;22.53;14.97;;;4.80;45.30;;;;;;10502749;28;20224;-74
2021/11/25 23:06:23;;;;;;;24.00;16.43;;;4.90;45.50;;;;;;10506268;28;20240;-74
2021/11/25 23:11:26;;;;;;;26.13;16.70;;;4.90;45.40;;;;;;10509819;28;20239;-74
2021/11/25 23:16:29;;;;;;;26.17;16.17;;;5.00;45.30;;;;;;10505252;28;20224;-74
2021/11/25 23:21:36;;;;;;;25.87;17.10;;;5.00;45.00;;;;;;10513157;28;20578;-74
2021/11/25 23:26:59;;;;;;;24.57;16.13;;;5.00;44.90;;;;;;10504348;28;20224;-74
2021/11/25 23:32:02;;;;;;;29.00;17.37;;;5.00;44.90;;;;;;10506641;28;20258;-71
2021/11/25 23:37:07;;;;;;;26.57;17.60;;;5.00;44.70;;;;;;10502120;28;20231;-71
2021/11/25 23:42:11;;;;;;;25.20;16.90;;;4.90;44.80;;;;;;10496496;28;21025;-71
2021/11/25 23:47:15;;;;;;;26.67;17.27;;;5.00;44.80;;;;;;10513328;28;20219;-71
2021/11/25 23:52:21;;;;;;;27.90;19.00;;;4.90;44.80;;;;;;10503962;28;20250;-71
2021/11/25 23:57:26;;;;;;;27.63;18.53;;;4.90;44.80;;;;;;10505629;28;20228;-74
